Rio Hondo, Texas
Current Conditions -  °F | °C
As of 6:52 PM on Sunday 21 Dec 2014 (Local Time) from KHRL Reporting Station
Overcast Overcast  
Wind Chill: 62°   Ceiling: 700
Heat Index: 62°   Visibility: 8mi
Dew Point: 60°   Wind: 3mph
Humidity: 93%   Direction: 10°N
Pressure: 29.92"   Gusts: NA
Location:  26.24°N, 97.58°W
Report Text: KHRL 220052Z 01003KT 8SM OVC007 17/16 A2992 RMK AO2 SLP133 T01670156
Loading
Personal Weather Stations






























Interactive Weather Map New forecast layout! Learn more

10-Day Weather Forecast

Advertisements
Track Severe Weather on mobile